Time;durP1;ratioP1;P1;durP2;ratioP2;P2;SDS_P1;SDS_P2;PMS_P1;PMS_P2;Temp;Humidity;BMP_temperature;BMP_pressure;BME280_temperature;BME280_humidity;BME280_pressure;Samples;Min_cycle;Max_cycle;Signal;HPM_P1;HPM_P2
2022/05/15 00:01:50;;;;;;;;;;;10.90;99.90;;;;;;4968648;28;20048;-76
2022/05/15 00:04:15;;;;;;;;;;;10.90;99.90;;;;;;4951224;28;20713;-76
2022/05/15 00:06:41;;;;;;;;;;;11.00;99.90;;;;;;4954176;28;19936;-76
2022/05/15 00:09:07;;;;;;;;;;;11.00;99.90;;;;;;4973066;28;19926;-76
2022/05/15 00:11:33;;;;;;;;;;;10.90;99.90;;;;;;4974497;28;19925;-76
2022/05/15 00:13:58;;;;;;;;;;;10.90;99.90;;;;;;4970247;28;20020;-76
2022/05/15 00:16:25;;;;;;;;;;;10.90;99.90;;;;;;4972921;28;20128;-76
2022/05/15 00:18:50;;;;;;;;;;;10.90;99.90;;;;;;4970122;28;19926;-76
2022/05/15 00:21:17;;;;;;;;;;;10.90;99.90;;;;;;4973393;28;20427;-76
2022/05/15 00:23:43;;;;;;;;;;;10.90;99.90;;;;;;4966369;28;19980;-76
2022/05/15 00:26:09;;;;;;;;;;;10.80;99.90;;;;;;4969710;28;19926;-76
2022/05/15 00:28:35;;;;;;;;;;;10.80;99.90;;;;;;4968499;28;19925;-76
2022/05/15 00:31:02;;;;;;;;;;;10.70;99.90;;;;;;4968196;28;19984;-76
2022/05/15 00:33:27;;;;;;;;;;;10.60;99.90;;;;;;4968877;28;19926;-76
2022/05/15 00:35:53;;;;;;;;;;;10.60;99.90;;;;;;4968262;28;20504;-76
2022/05/15 00:38:19;;;;;;;;;;;10.50;99.90;;;;;;4970788;28;20245;-76
2022/05/15 00:40:46;;;;;;;;;;;10.50;99.90;;;;;;4968780;28;20413;-76
2022/05/15 00:43:13;;;;;;;;;;;10.50;99.90;;;;;;4969029;28;19933;-76
2022/05/15 00:45:39;;;;;;;;;;;10.30;99.90;;;;;;4964697;28;20019;-76
2022/05/15 00:48:04;;;;;;;;;;;10.30;99.90;;;;;;4951615;28;20016;-76
2022/05/15 00:50:31;;;;;;;;;;;10.30;99.90;;;;;;4970036;28;20015;-76
2022/05/15 00:52:58;;;;;;;;;;;10.40;99.90;;;;;;4969978;28;19988;-76
2022/05/15 00:55:27;;;;;;;;;;;10.30;99.90;;;;;;4966646;28;19980;-76
2022/05/15 00:57:56;;;;;;;;;;;10.30;99.90;;;;;;4957952;28;19926;-76
2022/05/15 01:00:23;;;;;;;;;;;10.30;99.90;;;;;;4968281;28;19934;-76
2022/05/15 01:02:52;;;;;;;;;;;10.30;99.90;;;;;;4966906;28;19922;-76
2022/05/15 01:05:18;;;;;;;;;;;10.20;99.90;;;;;;4953614;28;20514;-76
2022/05/15 01:07:44;;;;;;;;;;;10.30;99.90;;;;;;4967237;28;19926;-76
2022/05/15 01:10:10;;;;;;;;;;;10.30;99.90;;;;;;4968136;28;19926;-76
2022/05/15 01:12:38;;;;;;;;;;;10.30;99.90;;;;;;4967413;28;20545;-76
2022/05/15 01:15:04;;;;;;;;;;;10.30;99.90;;;;;;4968187;28;19933;-76
2022/05/15 01:17:30;;;;;;;;;;;10.30;99.90;;;;;;4968713;28;19933;-76
2022/05/15 01:20:00;;;;;;;;;;;10.20;99.90;;;;;;4968648;28;19925;-76
2022/05/15 01:22:26;;;;;;;;;;;10.30;99.90;;;;;;4967289;28;19929;-76
2022/05/15 01:24:52;;;;;;;;;;;10.20;99.90;;;;;;4965391;28;19930;-76
2022/05/15 01:27:17;;;;;;;;;;;10.20;99.90;;;;;;4966051;28;20020;-76
2022/05/15 01:29:44;;;;;;;;;;;10.00;99.90;;;;;;4965473;28;19972;-76
2022/05/15 01:32:11;;;;;;;;;;;10.00;99.90;;;;;;4967493;28;20354;-76
2022/05/15 01:34:37;;;;;;;;;;;10.10;99.90;;;;;;4965789;28;19929;-76
2022/05/15 01:37:02;;;;;;;;;;;10.00;99.90;;;;;;4968014;28;19925;-76
2022/05/15 01:39:28;;;;;;;;;;;10.10;99.90;;;;;;4949212;28;19953;-76
2022/05/15 01:41:54;;;;;;;;;;;10.10;99.90;;;;;;4966207;28;19995;-76
2022/05/15 01:44:20;;;;;;;;;;;10.00;99.90;;;;;;4965979;28;19935;-76
2022/05/15 01:46:48;;;;;;;;;;;10.00;99.90;;;;;;4964907;28;20429;-76
2022/05/15 01:49:15;;;;;;;;;;;10.00;99.90;;;;;;4963648;28;19931;-76
2022/05/15 01:51:41;;;;;;;;;;;9.90;99.90;;;;;;4967817;28;19925;-76
2022/05/15 01:54:07;;;;;;;;;;;9.80;99.90;;;;;;4969034;28;19957;-76
2022/05/15 01:56:34;;;;;;;;;;;9.60;99.90;;;;;;4969279;28;19956;-76
2022/05/15 01:58:59;;;;;;;;;;;9.60;99.90;;;;;;4966810;28;19925;-76
2022/05/15 02:01:25;;;;;;;;;;;9.70;99.90;;;;;;4964564;28;19976;-76
2022/05/15 02:03:51;;;;;;;;;;;9.60;99.90;;;;;;4948744;28;21397;-76
2022/05/15 02:06:17;;;;;;;;;;;9.50;99.90;;;;;;4967347;28;19996;-76
2022/05/15 02:08:43;;;;;;;;;;;9.50;99.90;;;;;;4968752;28;22063;-76
2022/05/15 02:11:09;;;;;;;;;;;9.60;99.90;;;;;;4972469;28;19956;-77
2022/05/15 02:13:34;;;;;;;;;;;9.50;99.90;;;;;;4973646;28;20017;-76
2022/05/15 02:16:00;;;;;;;;;;;9.70;99.90;;;;;;4968665;28;19968;-76
2022/05/15 02:18:26;;;;;;;;;;;9.70;99.90;;;;;;4968361;28;19932;-76
2022/05/15 02:20:52;;;;;;;;;;;9.70;99.90;;;;;;4970620;28;20348;-76
2022/05/15 02:23:18;;;;;;;;;;;9.70;99.90;;;;;;4956318;28;20447;-76
2022/05/15 02:25:43;;;;;;;;;;;9.60;99.90;;;;;;4965782;28;19932;-76
2022/05/15 02:28:09;;;;;;;;;;;9.60;99.90;;;;;;4968934;28;19926;-76
2022/05/15 02:30:35;;;;;;;;;;;9.50;99.90;;;;;;4964676;28;20367;-76
2022/05/15 02:33:01;;;;;;;;;;;9.50;99.90;;;;;;4954928;28;19926;-76
2022/05/15 02:35:27;;;;;;;;;;;9.40;99.90;;;;;;4938954;28;20354;-76
2022/05/15 02:37:52;;;;;;;;;;;9.40;99.90;;;;;;4947807;28;20342;-76
2022/05/15 02:40:20;;;;;;;;;;;9.40;99.90;;;;;;4969364;28;19925;-76
2022/05/15 02:42:46;;;;;;;;;;;9.40;99.90;;;;;;4971143;28;20470;-76
2022/05/15 02:45:12;;;;;;;;;;;9.40;99.90;;;;;;4968047;28;19936;-76
2022/05/15 02:47:38;;;;;;;;;;;9.40;99.90;;;;;;4969125;28;20633;-76
2022/05/15 02:52:49;;;;;;;;;;;9.40;99.90;;;;;;4952542;28;20452;-76
2022/05/15 02:55:14;;;;;;;;;;;9.40;99.90;;;;;;4946523;28;19922;-76
2022/05/15 02:57:41;;;;;;;;;;;9.40;99.90;;;;;;4953863;28;19932;-76
2022/05/15 03:00:09;;;;;;;;;;;9.40;99.90;;;;;;4964450;28;20759;-76
2022/05/15 03:02:38;;;;;;;;;;;9.30;99.90;;;;;;4966355;28;19933;-76
2022/05/15 03:05:04;;;;;;;;;;;9.40;99.90;;;;;;4963257;28;20294;-76
2022/05/15 03:07:30;;;;;;;;;;;9.30;99.90;;;;;;4965379;28;19930;-76
2022/05/15 03:09:55;;;;;;;;;;;9.10;99.90;;;;;;4969628;28;20422;-76
2022/05/15 03:12:22;;;;;;;;;;;9.30;99.90;;;;;;4971769;28;20355;-76
2022/05/15 03:14:47;;;;;;;;;;;9.30;99.90;;;;;;4955969;28;19922;-76
2022/05/15 03:17:16;;;;;;;;;;;9.30;99.90;;;;;;4978398;28;19952;-76
2022/05/15 03:19:43;;;;;;;;;;;9.20;99.90;;;;;;4981937;28;19930;-76
2022/05/15 03:22:08;;;;;;;;;;;9.20;99.90;;;;;;4984275;28;19975;-76
2022/05/15 03:24:34;;;;;;;;;;;9.10;99.90;;;;;;4978810;28;19926;-76
2022/05/15 03:27:00;;;;;;;;;;;9.20;99.90;;;;;;4981665;28;19930;-76
2022/05/15 03:29:26;;;;;;;;;;;9.30;99.90;;;;;;4983573;28;20603;-76
2022/05/15 03:31:52;;;;;;;;;;;9.30;99.90;;;;;;4983293;28;20421;-76
2022/05/15 03:34:18;;;;;;;;;;;9.40;99.90;;;;;;4957343;28;19936;-76
2022/05/15 03:36:45;;;;;;;;;;;9.50;99.90;;;;;;4966938;28;20682;-76
2022/05/15 03:39:11;;;;;;;;;;;9.30;99.90;;;;;;4979758;28;20016;-77
2022/05/15 03:41:37;;;;;;;;;;;9.20;99.90;;;;;;4982170;28;19925;-77
2022/05/15 03:44:03;;;;;;;;;;;9.30;99.90;;;;;;4975019;28;19933;-76
2022/05/15 03:46:28;;;;;;;;;;;9.30;99.90;;;;;;4974558;28;20513;-76
2022/05/15 03:48:54;;;;;;;;;;;9.20;99.90;;;;;;4976673;28;19922;-76
2022/05/15 03:51:20;;;;;;;;;;;9.30;99.90;;;;;;4954923;28;19993;-76
2022/05/15 03:53:46;;;;;;;;;;;9.30;99.90;;;;;;4981183;28;20402;-76
2022/05/15 03:56:12;;;;;;;;;;;9.30;99.90;;;;;;4980244;28;20666;-76
2022/05/15 03:58:38;;;;;;;;;;;9.30;99.90;;;;;;4979092;28;19930;-76
2022/05/15 04:01:05;;;;;;;;;;;9.30;99.90;;;;;;4981037;28;19972;-76
2022/05/15 04:03:30;;;;;;;;;;;9.30;99.90;;;;;;4979260;28;20518;-76
2022/05/15 04:05:57;;;;;;;;;;;9.20;99.90;;;;;;4980197;28;19925;-76
2022/05/15 04:08:23;;;;;;;;;;;9.20;99.90;;;;;;4963151;28;19925;-76
2022/05/15 04:10:49;;;;;;;;;;;9.20;99.90;;;;;;4974618;28;19932;-76
2022/05/15 04:13:14;;;;;;;;;;;9.30;99.90;;;;;;4962250;28;19926;-76
2022/05/15 04:15:40;;;;;;;;;;;9.30;99.90;;;;;;4980055;28;19925;-76
2022/05/15 04:18:06;;;;;;;;;;;9.10;99.90;;;;;;4947181;28;20674;-76
2022/05/15 04:20:32;;;;;;;;;;;9.40;99.90;;;;;;4947116;28;19970;-76
2022/05/15 04:22:58;;;;;;;;;;;9.50;99.90;;;;;;4957863;28;20885;-76
2022/05/15 04:25:24;;;;;;;;;;;9.50;99.90;;;;;;4956728;28;19929;-76
2022/05/15 04:27:49;;;;;;;;;;;9.60;99.90;;;;;;4953586;28;20403;-76
2022/05/15 04:30:21;;;;;;;;;;;9.70;99.90;;;;;;4953274;28;19922;-77
2022/05/15 04:32:46;;;;;;;;;;;9.60;99.90;;;;;;4952517;28;20412;-76
2022/05/15 04:35:12;;;;;;;;;;;9.70;99.90;;;;;;4955036;28;20371;-76
2022/05/15 04:37:41;;;;;;;;;;;9.70;99.90;;;;;;4933172;28;20035;-76
2022/05/15 04:40:08;;;;;;;;;;;9.80;99.90;;;;;;4954132;28;19926;-76
2022/05/15 04:42:34;;;;;;;;;;;9.90;99.90;;;;;;4953935;28;20012;-76
2022/05/15 04:45:00;;;;;;;;;;;9.90;99.90;;;;;;4956771;28;19984;-76
2022/05/15 04:47:25;;;;;;;;;;;10.00;99.90;;;;;;4955305;28;20692;-76
2022/05/15 04:49:52;;;;;;;;;;;10.30;99.90;;;;;;4954086;28;19930;-76
2022/05/15 04:52:17;;;;;;;;;;;10.70;99.90;;;;;;4957267;28;19926;-76
2022/05/15 04:54:43;;;;;;;;;;;11.40;99.90;;;;;;4955649;28;19981;-76
2022/05/15 04:57:09;;;;;;;;;;;12.10;99.90;;;;;;4953024;28;19933;-76
2022/05/15 04:59:35;;;;;;;;;;;12.30;99.90;;;;;;4952685;28;19941;-76
2022/05/15 05:02:01;;;;;;;;;;;13.20;99.90;;;;;;4952259;28;20024;-76
2022/05/15 05:04:26;;;;;;;;;;;13.70;99.90;;;;;;4954747;28;19925;-76
2022/05/15 05:06:52;;;;;;;;;;;14.10;99.90;;;;;;4961509;28;20040;-76
2022/05/15 05:09:18;;;;;;;;;;;13.80;99.90;;;;;;4955269;28;19930;-76
2022/05/15 05:11:44;;;;;;;;;;;14.50;99.90;;;;;;4953408;28;19926;-77
2022/05/15 05:14:10;;;;;;;;;;;14.30;99.90;;;;;;4954301;28;20671;-77
2022/05/15 05:16:36;;;;;;;;;;;14.80;99.90;;;;;;4951038;28;19990;-76
2022/05/15 05:19:02;;;;;;;;;;;15.60;99.90;;;;;;4949286;28;19926;-77
2022/05/15 05:21:28;;;;;;;;;;;16.10;99.90;;;;;;4951642;28;19926;-77
2022/05/15 05:23:53;;;;;;;;;;;15.90;99.90;;;;;;4960030;28;19933;-77
2022/05/15 05:26:19;;;;;;;;;;;16.10;99.90;;;;;;4952452;28;19926;-77
2022/05/15 05:28:46;;;;;;;;;;;16.10;99.90;;;;;;4953634;28;19926;-77
2022/05/15 05:31:12;;;;;;;;;;;16.50;99.90;;;;;;4951061;28;19934;-77
2022/05/15 05:33:37;;;;;;;;;;;16.10;99.90;;;;;;4954704;28;19933;-77
2022/05/15 05:36:04;;;;;;;;;;;17.10;99.90;;;;;;4920641;28;19926;-77
2022/05/15 05:38:29;;;;;;;;;;;16.50;99.90;;;;;;4953382;28;19922;-77
2022/05/15 05:40:55;;;;;;;;;;;17.70;99.90;;;;;;4957157;28;19926;-77
2022/05/15 05:43:21;;;;;;;;;;;16.10;99.90;;;;;;4952948;28;19926;-76
2022/05/15 05:45:46;;;;;;;;;;;15.60;99.90;;;;;;4947922;28;19933;-77
2022/05/15 05:48:12;;;;;;;;;;;15.40;99.90;;;;;;4953292;28;19929;-76
2022/05/15 05:50:38;;;;;;;;;;;16.00;99.90;;;;;;4956924;28;19936;-77
2022/05/15 05:53:04;;;;;;;;;;;15.50;99.90;;;;;;4931849;28;20482;-76
2022/05/15 05:55:30;;;;;;;;;;;15.80;99.90;;;;;;4950630;28;19926;-77
2022/05/15 05:57:56;;;;;;;;;;;16.20;99.90;;;;;;4953902;28;19925;-76
2022/05/15 06:00:24;;;;;;;;;;;15.90;99.90;;;;;;4953811;28;19930;-76
2022/05/15 06:02:50;;;;;;;;;;;15.50;99.90;;;;;;4950737;28;19930;-76
2022/05/15 06:05:16;;;;;;;;;;;15.10;99.90;;;;;;4951632;28;19965;-77
2022/05/15 06:07:42;;;;;;;;;;;15.20;99.90;;;;;;4934686;28;20269;-76
2022/05/15 06:10:12;;;;;;;;;;;15.50;99.90;;;;;;4934764;28;20686;-76
2022/05/15 06:12:40;;;;;;;;;;;15.60;99.90;;;;;;4952717;28;19926;-77
2022/05/15 06:15:06;;;;;;;;;;;14.90;99.90;;;;;;4950672;28;19926;-77
2022/05/15 06:17:32;;;;;;;;;;;15.80;99.90;;;;;;4958682;28;20469;-77
2022/05/15 06:19:58;;;;;;;;;;;15.40;99.90;;;;;;4969349;28;19926;-77
2022/05/15 06:22:24;;;;;;;;;;;15.60;99.90;;;;;;4970852;28;19927;-77
2022/05/15 06:24:49;;;;;;;;;;;15.40;99.90;;;;;;4971910;28;20017;-77
2022/05/15 06:27:15;;;;;;;;;;;15.20;99.90;;;;;;4971567;28;19926;-77
2022/05/15 06:29:41;;;;;;;;;;;16.00;99.90;;;;;;4971212;28;20043;-77
2022/05/15 06:32:07;;;;;;;;;;;16.40;99.90;;;;;;4954019;28;20041;-76
2022/05/15 06:34:33;;;;;;;;;;;15.80;99.90;;;;;;4971218;28;19937;-76
2022/05/15 06:36:59;;;;;;;;;;;16.80;99.90;;;;;;4971546;28;19925;-76
2022/05/15 06:39:24;;;;;;;;;;;15.50;99.90;;;;;;4972661;28;19968;-76
2022/05/15 06:41:50;;;;;;;;;;;15.40;99.90;;;;;;4971869;28;20024;-76
2022/05/15 06:44:17;;;;;;;;;;;16.70;99.90;;;;;;4974483;28;19964;-75
2022/05/15 06:46:43;;;;;;;;;;;15.60;99.90;;;;;;4965679;28;19921;-76
2022/05/15 06:49:09;;;;;;;;;;;15.70;99.90;;;;;;4978409;28;19930;-76
2022/05/15 06:51:35;;;;;;;;;;;16.00;99.90;;;;;;4976899;28;20704;-76
2022/05/15 06:54:00;;;;;;;;;;;16.90;99.90;;;;;;4971210;28;20359;-77
2022/05/15 06:59:10;;;;;;;;;;;16.30;99.90;;;;;;4974427;28;20528;-77
2022/05/15 07:01:36;;;;;;;;;;;16.80;99.90;;;;;;4972179;28;21561;-76
2022/05/15 07:04:02;;;;;;;;;;;17.70;99.90;;;;;;4968248;28;19929;-76
2022/05/15 07:06:28;;;;;;;;;;;18.10;99.90;;;;;;4950738;28;19937;-76
2022/05/15 07:08:54;;;;;;;;;;;18.60;99.90;;;;;;4954165;28;19925;-76
2022/05/15 07:11:20;;;;;;;;;;;17.80;99.90;;;;;;4967271;28;19925;-77
2022/05/15 07:13:45;;;;;;;;;;;16.80;99.90;;;;;;4974225;28;19930;-77
2022/05/15 07:16:11;;;;;;;;;;;17.00;99.90;;;;;;4974828;28;20338;-76
2022/05/15 07:18:38;;;;;;;;;;;17.80;99.90;;;;;;4973064;28;19926;-77
2022/05/15 07:21:04;;;;;;;;;;;17.60;99.90;;;;;;4974467;28;19925;-76
2022/05/15 07:23:30;;;;;;;;;;;17.60;99.90;;;;;;4973179;28;19925;-77
2022/05/15 07:25:56;;;;;;;;;;;17.90;99.90;;;;;;4972717;28;20489;-77
2022/05/15 07:28:22;;;;;;;;;;;18.60;99.90;;;;;;4974189;28;20331;-76
2022/05/15 07:30:48;;;;;;;;;;;18.70;99.90;;;;;;4971357;28;20469;-76
2022/05/15 07:33:17;;;;;;;;;;;19.60;99.90;;;;;;4972927;28;20024;-77
2022/05/15 07:35:42;;;;;;;;;;;20.10;99.90;;;;;;4968383;28;20410;-77
2022/05/15 07:38:09;;;;;;;;;;;19.90;99.90;;;;;;4958802;28;20398;-76
2022/05/15 07:40:35;;;;;;;;;;;19.10;99.90;;;;;;4945885;28;19929;-77
2022/05/15 07:43:04;;;;;;;;;;;19.40;99.90;;;;;;4971505;28;20021;-78
2022/05/15 07:45:30;;;;;;;;;;;18.70;99.90;;;;;;4974612;28;19925;-76
2022/05/15 07:47:56;;;;;;;;;;;19.50;99.90;;;;;;4951675;28;19932;-77
2022/05/15 07:50:21;;;;;;;;;;;19.40;99.90;;;;;;4930684;28;19941;-77
2022/05/15 07:52:48;;;;;;;;;;;19.50;97.80;;;;;;4920778;28;19932;-77
2022/05/15 07:55:14;;;;;;;;;;;19.20;99.90;;;;;;4960156;28;19930;-77
2022/05/15 07:57:39;;;;;;;;;;;19.00;96.50;;;;;;4970524;28;19972;-78
2022/05/15 08:00:08;;;;;;;;;;;19.20;99.00;;;;;;4952653;28;20442;-77
2022/05/15 08:02:34;;;;;;;;;;;19.70;99.90;;;;;;4968471;28;19931;-77
2022/05/15 08:08:01;;;;;;;;;;;18.70;99.90;;;;;;4965412;28;19933;-77
2022/05/15 08:10:32;;;;;;;;;;;19.40;99.90;;;;;;4965271;28;19926;-77
2022/05/15 08:12:58;;;;;;;;;;;19.70;99.90;;;;;;4968433;28;20628;-76
2022/05/15 08:15:24;;;;;;;;;;;19.70;99.90;;;;;;4974440;28;19941;-76
2022/05/15 08:17:50;;;;;;;;;;;19.40;94.70;;;;;;4968278;28;20290;-76
2022/05/15 08:25:45;;;;;;;;;;;19.90;99.20;;;;;;4965520;28;20295;-77
2022/05/15 08:28:11;;;;;;;;;;;19.90;92.30;;;;;;4971459;28;19925;-76
2022/05/15 08:30:37;;;;;;;;;;;19.90;92.40;;;;;;4973330;28;20513;-77
2022/05/15 08:33:04;;;;;;;;;;;20.50;97.60;;;;;;4968572;28;20517;-77
2022/05/15 08:35:30;;;;;;;;;;;20.80;96.30;;;;;;4966170;28;21476;-77
2022/05/15 08:37:56;;;;;;;;;;;20.80;95.50;;;;;;4960968;28;19932;-76
2022/05/15 08:40:24;;;;;;;;;;;19.90;91.80;;;;;;4961702;28;19956;-77
2022/05/15 08:42:55;;;;;;;;;;;20.70;96.30;;;;;;4957893;28;19925;-77
2022/05/15 08:45:29;;;;;;;;;;;20.00;92.10;;;;;;4961772;28;20063;-77
2022/05/15 08:48:05;;;;;;;;;;;20.50;97.40;;;;;;4966311;28;19926;-76
2022/05/15 08:50:36;;;;;;;;;;;20.80;99.00;;;;;;4970167;28;19936;-77
2022/05/15 08:53:11;;;;;;;;;;;21.50;99.90;;;;;;4967378;28;19984;-77
2022/05/15 08:55:45;;;;;;;;;;;21.80;99.30;;;;;;4970665;28;19932;-78
2022/05/15 08:58:35;;;;;;;;;;;20.90;80.10;;;;;;4968127;28;19932;-77
2022/05/15 09:01:01;;;;;;;;;;;20.80;90.00;;;;;;4967648;28;19926;-77
2022/05/15 09:03:31;;;;;;;;;;;20.90;93.60;;;;;;4953225;28;20077;-77
2022/05/15 09:06:01;;;;;;;;;;;20.50;90.40;;;;;;4965139;28;19925;-77
2022/05/15 09:08:33;;;;;;;;;;;20.30;94.10;;;;;;4966067;28;19948;-77
2022/05/15 09:11:02;;;;;;;;;;;21.10;91.00;;;;;;4969318;28;19931;-77
2022/05/15 09:13:34;;;;;;;;;;;21.00;92.70;;;;;;4962590;28;20284;-77
2022/05/15 09:16:01;;;;;;;;;;;20.60;91.40;;;;;;4965787;28;19932;-76
2022/05/15 09:18:27;;;;;;;;;;;21.20;98.40;;;;;;4946753;28;19945;-77
2022/05/15 09:20:53;;;;;;;;;;;20.60;84.60;;;;;;4964934;28;19988;-77
2022/05/15 09:23:29;;;;;;;;;;;21.00;93.80;;;;;;4945891;28;19930;-77
2022/05/15 09:26:00;;;;;;;;;;;21.30;91.50;;;;;;4962145;28;20403;-77
2022/05/15 09:28:27;;;;;;;;;;;21.10;80.50;;;;;;4967594;28;19932;-77
2022/05/15 09:30:55;;;;;;;;;;;21.70;91.00;;;;;;4968631;28;20057;-77
2022/05/15 09:33:21;;;;;;;;;;;21.60;90.50;;;;;;4967072;28;20024;-76
2022/05/15 09:35:47;;;;;;;;;;;21.30;76.10;;;;;;4969226;28;20394;-76
2022/05/15 09:38:28;;;;;;;;;;;20.80;85.50;;;;;;4973958;28;19931;-76
2022/05/15 09:43:41;;;;;;;;;;;21.60;75.00;;;;;;4971975;28;20046;-76
2022/05/15 09:46:12;;;;;;;;;;;21.10;80.90;;;;;;4954261;28;19970;-77
2022/05/15 09:48:58;;;;;;;;;;;21.60;78.30;;;;;;4953992;28;19929;-77
2022/05/15 09:51:30;;;;;;;;;;;21.70;79.90;;;;;;4954553;28;19929;-78
2022/05/15 09:53:57;;;;;;;;;;;21.20;73.10;;;;;;4970575;28;20562;-77
2022/05/15 09:56:25;;;;;;;;;;;21.90;85.40;;;;;;4968913;28;19948;-78
2022/05/15 09:58:51;;;;;;;;;;;22.10;73.40;;;;;;4975647;28;20437;-76
2022/05/15 10:01:36;;;;;;;;;;;22.50;82.80;;;;;;4969990;28;20016;-77
2022/05/15 10:04:03;;;;;;;;;;;21.90;70.20;;;;;;4969917;28;19926;-78
2022/05/15 10:06:37;;;;;;;;;;;22.00;72.10;;;;;;4954796;28;19925;-77
2022/05/15 10:09:07;;;;;;;;;;;23.10;84.10;;;;;;4968354;28;19933;-78
2022/05/15 10:11:35;;;;;;;;;;;23.10;74.00;;;;;;4960672;28;19933;-77
2022/05/15 10:14:02;;;;;;;;;;;22.70;67.40;;;;;;4968333;28;20116;-77
2022/05/15 10:16:29;;;;;;;;;;;23.30;83.10;;;;;;4971822;28;20291;-77
2022/05/15 10:19:02;;;;;;;;;;;23.10;72.50;;;;;;4953425;28;19921;-76
2022/05/15 10:21:32;;;;;;;;;;;22.80;71.00;;;;;;4971356;28;20013;-77
2022/05/15 10:24:00;;;;;;;;;;;22.40;72.00;;;;;;4973748;28;19930;-77
2022/05/15 10:26:41;;;;;;;;;;;21.70;66.70;;;;;;4965488;28;20099;-78
2022/05/15 10:29:24;;;;;;;;;;;22.50;66.70;;;;;;4971653;28;19933;-77
2022/05/15 10:31:52;;;;;;;;;;;22.30;74.10;;;;;;4970756;28;19965;-78
2022/05/15 10:34:23;;;;;;;;;;;22.40;68.90;;;;;;4970988;28;20853;-77
2022/05/15 10:37:01;;;;;;;;;;;23.20;83.00;;;;;;4958197;28;20356;-78
2022/05/15 10:39:49;;;;;;;;;;;22.60;70.70;;;;;;4972207;28;20004;-77
2022/05/15 10:42:18;;;;;;;;;;;22.70;77.00;;;;;;4957889;28;20305;-77
2022/05/15 10:44:53;;;;;;;;;;;22.00;69.90;;;;;;4967064;28;19925;-77
2022/05/15 10:47:20;;;;;;;;;;;21.60;63.80;;;;;;4963443;28;20621;-77
2022/05/15 10:50:04;;;;;;;;;;;22.40;65.20;;;;;;4961222;28;19925;-78
2022/05/15 10:52:47;;;;;;;;;;;22.10;67.10;;;;;;4963147;28;19933;-77
2022/05/15 10:58:11;;;;;;;;;;;23.20;79.20;;;;;;4962516;28;20584;-78
2022/05/15 11:00:42;;;;;;;;;;;22.90;67.60;;;;;;4957771;28;19932;-78
2022/05/15 11:03:27;;;;;;;;;;;23.20;71.60;;;;;;4969498;28;19925;-77
2022/05/15 11:05:55;;;;;;;;;;;23.10;64.20;;;;;;4970170;28;19930;-77
2022/05/15 11:08:27;;;;;;;;;;;23.40;64.40;;;;;;4965227;28;20295;-77
2022/05/15 11:11:11;;;;;;;;;;;23.20;64.30;;;;;;4955569;28;20019;-77
2022/05/15 11:14:06;;;;;;;;;;;22.40;62.40;;;;;;4969143;28;19973;-77
2022/05/15 11:16:50;;;;;;;;;;;23.80;73.40;;;;;;4909052;28;20434;-77
2022/05/15 11:19:25;;;;;;;;;;;23.30;67.50;;;;;;4964424;28;20477;-78
2022/05/15 11:22:03;;;;;;;;;;;23.70;64.50;;;;;;4968625;28;19972;-78
2022/05/15 11:24:32;;;;;;;;;;;22.80;65.00;;;;;;4950792;28;19930;-77
2022/05/15 11:27:00;;;;;;;;;;;23.50;70.20;;;;;;4948686;28;20167;-79
2022/05/15 11:29:27;;;;;;;;;;;23.30;60.40;;;;;;4967002;28;19933;-78
2022/05/15 11:31:56;;;;;;;;;;;23.30;64.70;;;;;;4968605;28;20460;-78
2022/05/15 11:34:40;;;;;;;;;;;23.60;64.50;;;;;;4965839;28;19933;-78
2022/05/15 11:37:26;;;;;;;;;;;24.20;62.90;;;;;;4968720;28;19925;-77
2022/05/15 11:39:59;;;;;;;;;;;23.60;64.20;;;;;;4960177;28;19930;-77
2022/05/15 11:42:28;;;;;;;;;;;23.00;62.60;;;;;;4937358;28;19925;-77
2022/05/15 11:44:53;;;;;;;;;;;24.30;66.20;;;;;;4973097;28;19974;-78
2022/05/15 11:47:24;;;;;;;;;;;23.90;62.70;;;;;;4972146;28;20007;-77
2022/05/15 11:49:58;;;;;;;;;;;23.10;58.70;;;;;;4968390;28;20379;-77
2022/05/15 11:52:33;;;;;;;;;;;23.70;61.20;;;;;;4965679;28;19956;-78
2022/05/15 11:54:59;;;;;;;;;;;23.80;67.00;;;;;;4970568;28;19929;-77
2022/05/15 11:57:37;;;;;;;;;;;23.10;60.70;;;;;;4966830;28;20768;-77
2022/05/15 12:00:05;;;;;;;;;;;23.50;59.90;;;;;;4968722;28;19936;-77
2022/05/15 12:02:31;;;;;;;;;;;24.20;64.90;;;;;;4971407;28;19980;-77
2022/05/15 12:05:15;;;;;;;;;;;24.00;59.20;;;;;;4967686;28;19930;-77
2022/05/15 12:08:19;;;;;;;;;;;23.80;59.40;;;;;;4968606;28;19936;-77
2022/05/15 12:10:44;;;;;;;;;;;24.10;63.70;;;;;;4967615;28;19926;-77
2022/05/15 12:13:11;;;;;;;;;;;24.40;61.20;;;;;;4952859;28;20264;-77
2022/05/15 12:15:46;;;;;;;;;;;23.90;60.60;;;;;;4968470;28;19933;-77
2022/05/15 12:18:18;;;;;;;;;;;24.60;61.10;;;;;;4957527;28;20084;-77
2022/05/15 12:20:47;;;;;;;;;;;23.90;61.30;;;;;;4940340;28;20016;-77
2022/05/15 12:23:18;;;;;;;;;;;24.30;64.30;;;;;;4952401;28;19985;-77
2022/05/15 12:25:52;;;;;;;;;;;24.00;57.60;;;;;;4950722;28;19926;-77
2022/05/15 12:31:25;;;;;;;;;;;24.70;58.10;;;;;;4934659;28;19937;-78
2022/05/15 12:33:51;;;;;;;;;;;25.10;61.90;;;;;;4929462;28;19981;-78
2022/05/15 12:36:34;;;;;;;;;;;24.50;57.50;;;;;;4950267;28;19976;-78
2022/05/15 12:39:01;;;;;;;;;;;24.80;60.20;;;;;;4951190;28;19934;-78
2022/05/15 12:41:38;;;;;;;;;;;26.00;60.80;;;;;;4947785;28;19948;-78
2022/05/15 12:44:06;;;;;;;;;;;24.20;58.80;;;;;;4948403;28;19926;-77
2022/05/15 12:46:39;;;;;;;;;;;24.20;61.40;;;;;;4948075;28;20069;-77
2022/05/15 12:49:05;;;;;;;;;;;24.20;54.90;;;;;;4950653;28;19981;-77
2022/05/15 12:51:38;;;;;;;;;;;24.60;60.40;;;;;;4934587;28;19996;-77
2022/05/15 12:54:19;;;;;;;;;;;25.00;58.30;;;;;;4948486;28;19940;-78
2022/05/15 12:56:45;;;;;;;;;;;24.80;59.50;;;;;;4949118;28;20465;-77
2022/05/15 12:59:20;;;;;;;;;;;24.00;59.10;;;;;;4929210;28;19945;-77
2022/05/15 13:01:47;;;;;;;;;;;24.30;60.20;;;;;;4934010;28;19969;-77
2022/05/15 13:04:18;;;;;;;;;;;24.40;57.90;;;;;;4947570;28;19926;-78
2022/05/15 13:06:53;;;;;;;;;;;24.20;54.60;;;;;;4921425;28;20550;-77
2022/05/15 13:09:23;;;;;;;;;;;24.50;56.70;;;;;;4934444;28;20401;-78
2022/05/15 13:11:51;;;;;;;;;;;24.00;56.50;;;;;;4940019;28;19926;-78
2022/05/15 13:14:19;;;;;;;;;;;23.90;56.70;;;;;;4923186;28;19945;-77
2022/05/15 13:16:46;;;;;;;;;;;23.70;55.20;;;;;;4938560;28;19926;-77
2022/05/15 13:19:14;;;;;;;;;;;23.80;58.80;;;;;;4933869;28;20396;-77
2022/05/15 13:21:41;;;;;;;;;;;23.40;55.20;;;;;;4932747;28;20387;-77
2022/05/15 13:24:34;;;;;;;;;;;23.30;55.00;;;;;;4943053;28;20411;-77
2022/05/15 13:27:00;;;;;;;;;;;23.80;55.30;;;;;;4950854;28;19922;-77
2022/05/15 13:29:27;;;;;;;;;;;23.70;58.80;;;;;;4953787;28;21380;-77
2022/05/15 13:31:55;;;;;;;;;;;24.10;53.20;;;;;;4936621;28;20622;-77
2022/05/15 13:34:24;;;;;;;;;;;24.20;57.10;;;;;;4954021;28;20484;-77
2022/05/15 13:36:53;;;;;;;;;;;25.00;59.50;;;;;;4958990;28;19932;-77
2022/05/15 13:44:50;;;;;;;;;;;24.20;53.20;;;;;;4935667;28;19973;-78
2022/05/15 13:47:16;;;;;;;;;;;24.40;55.50;;;;;;4951308;28;19930;-77
2022/05/15 13:49:43;;;;;;;;;;;24.10;55.00;;;;;;4954071;28;20334;-78
2022/05/15 13:52:21;;;;;;;;;;;23.80;54.20;;;;;;4951626;28;19933;-81
2022/05/15 13:54:47;;;;;;;;;;;24.10;54.70;;;;;;4950868;28;19932;-78
2022/05/15 13:57:13;;;;;;;;;;;24.70;55.80;;;;;;4953614;28;19997;-78
2022/05/15 13:59:42;;;;;;;;;;;24.70;54.20;;;;;;4934187;28;20344;-77
2022/05/15 14:02:18;;;;;;;;;;;24.30;57.30;;;;;;4954047;28;19925;-77
2022/05/15 14:04:45;;;;;;;;;;;24.30;55.20;;;;;;4951177;28;19945;-77
2022/05/15 14:07:23;;;;;;;;;;;24.20;54.30;;;;;;4937030;28;19972;-77
2022/05/15 14:09:50;;;;;;;;;;;24.80;57.70;;;;;;4923687;28;19929;-77
2022/05/15 14:12:17;;;;;;;;;;;24.80;56.90;;;;;;4933692;28;19932;-77
2022/05/15 14:14:45;;;;;;;;;;;24.70;56.40;;;;;;4956982;28;19930;-78
2022/05/15 14:17:23;;;;;;;;;;;24.80;56.40;;;;;;4936179;28;19981;-78
2022/05/15 14:20:15;;;;;;;;;;;25.10;57.70;;;;;;4948492;28;19930;-76
2022/05/15 14:22:41;;;;;;;;;;;24.80;56.90;;;;;;4954416;28;19933;-77
2022/05/15 14:25:08;;;;;;;;;;;24.70;56.50;;;;;;4951316;28;19925;-78
2022/05/15 14:27:34;;;;;;;;;;;24.40;53.80;;;;;;4951788;28;21100;-78
2022/05/15 14:30:00;;;;;;;;;;;24.60;51.70;;;;;;4952913;28;19926;-78
2022/05/15 14:32:30;;;;;;;;;;;24.60;56.50;;;;;;4951983;28;20380;-78
2022/05/15 14:34:57;;;;;;;;;;;24.50;53.20;;;;;;4954629;28;19933;-77
2022/05/15 14:37:24;;;;;;;;;;;24.70;57.10;;;;;;4955292;28;19976;-78
2022/05/15 14:39:50;;;;;;;;;;;24.20;53.60;;;;;;4954153;28;20379;-77
2022/05/15 14:42:17;;;;;;;;;;;23.70;59.40;;;;;;4952465;28;19936;-78
2022/05/15 14:44:43;;;;;;;;;;;23.60;53.50;;;;;;4934612;28;20105;-77
2022/05/15 14:47:12;;;;;;;;;;;23.60;58.50;;;;;;4953487;28;19926;-78
2022/05/15 14:49:38;;;;;;;;;;;23.80;55.40;;;;;;4933464;28;19925;-78
2022/05/15 14:52:05;;;;;;;;;;;24.20;57.40;;;;;;4954300;28;20048;-79
2022/05/15 14:54:31;;;;;;;;;;;24.60;56.50;;;;;;4952116;28;20284;-77